Time;durP1;ratioP1;P1;durP2;ratioP2;P2;SDS_P1;SDS_P2;PMS_P1;PMS_P2;Temp;Humidity;BMP_temperature;BMP_pressure;BME280_temperature;BME280_humidity;BME280_pressure;Samples;Min_cycle;Max_cycle;Signal;HPM_P1;HPM_P2
2022/06/07 00:02:33;;;;;;;21.60;15.43;;;;;;;16.33;73.49;100779.50;7395547;19;20423;-70
2022/06/07 00:05:02;;;;;;;18.83;16.63;;;;;;;16.32;73.86;100785.72;7393658;19;20022;-70
2022/06/07 00:07:30;;;;;;;18.75;15.80;;;;;;;16.30;73.60;100790.19;7395735;19;20007;-70
2022/06/07 00:09:59;;;;;;;19.63;17.23;;;;;;;16.27;73.88;100783.25;7393590;19;20073;-69
2022/06/07 00:12:28;;;;;;;21.35;18.42;;;;;;;16.25;73.95;100781.59;7394202;19;20039;-70
2022/06/07 00:14:57;;;;;;;24.73;18.77;;;;;;;16.22;74.08;100782.59;7393786;19;20010;-70
2022/06/07 00:17:26;;;;;;;25.55;21.38;;;;;;;16.20;74.40;100780.97;7393689;19;20025;-70
2022/06/07 00:19:57;;;;;;;26.13;20.90;;;;;;;16.17;74.39;100781.97;7395457;19;20102;-70
2022/06/07 00:22:25;;;;;;;25.40;18.77;;;;;;;16.14;74.50;100787.41;7395145;19;20087;-70
2022/06/07 00:24:54;;;;;;;25.73;18.90;;;;;;;16.09;74.66;100784.94;7394874;19;20032;-70
2022/06/07 00:27:23;;;;;;;23.08;17.92;;;;;;;16.07;74.63;100784.13;7393455;19;20026;-70
2022/06/07 00:29:51;;;;;;;19.17;16.42;;;;;;;16.04;74.88;100788.75;7394795;19;20010;-70
2022/06/07 00:32:23;;;;;;;13.48;12.02;;;;;;;16.01;74.99;100779.16;7393934;19;20086;-70
2022/06/07 00:34:52;;;;;;;11.77;10.15;;;;;;;16.00;75.16;100780.06;7395240;19;20023;-69
2022/06/07 00:37:23;;;;;;;13.70;12.10;;;;;;;15.96;75.40;100795.22;7393140;19;20018;-70
2022/06/07 00:39:52;;;;;;;15.98;13.82;;;;;;;15.94;75.43;100789.13;7394505;19;20364;-70
2022/06/07 00:42:20;;;;;;;19.75;15.65;;;;;;;15.93;75.58;100786.56;7394430;19;20014;-70
2022/06/07 00:44:49;;;;;;;17.90;14.95;;;;;;;15.91;75.66;100785.75;7394730;19;20015;-70
2022/06/07 00:47:21;;;;;;;20.80;17.00;;;;;;;15.89;75.79;100777.03;7392523;19;20028;-70
2022/06/07 00:49:52;;;;;;;24.27;19.60;;;;;;;15.89;75.88;100777.88;7392694;19;20018;-69
2022/06/07 00:52:27;;;;;;;20.25;17.55;;;;;;;15.89;75.64;100774.38;7393523;19;20086;-69
2022/06/07 00:54:56;;;;;;;16.13;14.43;;;;;;;15.90;75.78;100766.38;7394873;19;20015;-69
2022/06/07 00:57:25;;;;;;;17.27;13.68;;;;;;;15.91;76.01;100767.22;7392081;19;20031;-69
2022/06/07 00:59:54;;;;;;;12.48;11.18;;;;;;;15.91;76.02;100767.22;7392414;19;20031;-70
2022/06/07 01:02:23;;;;;;;11.13;10.02;;;;;;;15.92;75.94;100766.31;7392395;19;20070;-69
2022/06/07 01:04:51;;;;;;;12.73;10.43;;;;;;;15.93;76.24;100758.28;7393824;19;20018;-69
2022/06/07 01:12:44;;;;;;;18.20;16.30;;;;;;;15.93;76.26;100754.78;7393139;19;20014;-68
2022/06/07 01:15:13;;;;;;;19.42;16.50;;;;;;;15.93;76.40;100760.09;7392356;19;20018;-69
2022/06/07 01:17:42;;;;;;;19.65;17.30;;;;;;;15.93;76.62;100757.44;7401309;19;20019;-68
2022/06/07 01:20:12;;;;;;;17.67;15.77;;;;;;;15.93;76.45;100768.88;7398190;19;20014;-69
2022/06/07 01:22:43;;;;;;;23.42;19.27;;;;;;;15.93;76.65;100758.28;7400813;19;20074;-69
2022/06/07 01:25:12;;;;;;;30.73;23.48;;;;;;;15.94;76.70;100756.53;7398005;19;20015;-70
2022/06/07 01:27:41;;;;;;;21.45;17.83;;;;;;;15.92;76.44;100751.31;7397984;19;20024;-69
2022/06/07 01:30:10;;;;;;;22.52;17.50;;;;;;;15.91;76.55;100754.88;7400546;19;20502;-69
2022/06/07 01:32:39;;;;;;;14.40;12.23;;;;;;;15.89;76.60;100745.28;7399246;19;20022;-69
2022/06/07 01:35:09;;;;;;;10.02;8.65;;;;;;;15.88;76.77;100747.06;7400568;19;20019;-70
2022/06/07 01:37:38;;;;;;;7.70;7.00;;;;;;;15.88;76.90;100748.84;7398087;19;20077;-70
2022/06/07 01:42:57;;;;;;;8.38;7.50;;;;;;;15.85;76.70;100746.34;7401179;19;20066;-70
2022/06/07 01:45:26;;;;;;;8.25;7.15;;;;;;;15.83;77.05;100740.25;7399922;19;20022;-70
2022/06/07 01:47:54;;;;;;;8.63;6.00;;;;;;;15.83;76.99;100740.25;7400048;19;20445;-70
2022/06/07 01:50:23;;;;;;;5.95;5.38;;;;;;;15.80;77.23;100728.84;7400264;19;20334;-70
2022/06/07 01:52:51;;;;;;;6.03;5.43;;;;;;;15.79;77.23;100728.91;7398407;19;20094;-70
2022/06/07 01:55:22;;;;;;;9.93;8.02;;;;;;;15.77;77.33;100733.41;7397617;19;20019;-70
2022/06/07 01:57:51;;;;;;;7.82;7.03;;;;;;;15.74;77.42;100736.19;7399830;19;20035;-67
2022/06/07 02:00:20;;;;;;;8.35;7.18;;;;;;;15.71;77.60;100731.03;7399409;19;20028;-68
2022/06/07 02:02:49;;;;;;;11.13;8.88;;;;;;;15.67;77.78;100740.91;7399962;19;20082;-67
2022/06/07 02:05:17;;;;;;;6.32;5.72;;;;;;;15.64;77.53;100733.09;7397290;19;20043;-66
2022/06/07 02:07:46;;;;;;;6.22;5.63;;;;;;;15.60;77.86;100734.16;7399766;19;20023;-67
2022/06/07 02:10:15;;;;;;;6.60;5.38;;;;;;;15.55;77.82;100734.34;7397065;19;20023;-67
2022/06/07 02:12:46;;;;;;;5.78;5.28;;;;;;;15.50;78.13;100736.31;7398801;19;20373;-67
2022/06/07 02:15:14;;;;;;;6.07;5.50;;;;;;;15.45;77.99;100735.66;7396893;19;20006;-67
2022/06/07 02:17:43;;;;;;;8.32;5.90;;;;;;;15.41;78.28;100734.91;7397855;19;20029;-67
2022/06/07 02:20:12;;;;;;;6.50;5.43;;;;;;;15.34;78.46;100730.81;7398274;19;20036;-68
2022/06/07 02:22:41;;;;;;;6.40;5.80;;;;;;;15.33;78.69;100731.75;7398228;19;20038;-67
2022/06/07 02:25:10;;;;;;;6.57;5.85;;;;;;;15.29;78.65;100733.66;7398337;19;20081;-67
2022/06/07 02:27:38;;;;;;;6.72;5.55;;;;;;;15.26;79.08;100735.56;7394716;19;20078;-67
2022/06/07 02:30:11;;;;;;;7.32;6.03;;;;;;;15.21;79.15;100730.47;7398892;19;20086;-67
2022/06/07 02:32:41;;;;;;;7.35;6.40;;;;;;;15.17;79.29;100731.53;7396512;19;20022;-67
2022/06/07 02:35:11;;;;;;;7.53;6.15;;;;;;;15.13;79.24;100729.94;7398072;19;20091;-69
2022/06/07 02:37:41;;;;;;;6.97;6.28;;;;;;;15.07;79.27;100736.31;7396071;19;20023;-70
2022/06/07 02:40:10;;;;;;;7.45;6.55;;;;;;;15.05;79.56;100737.31;7396729;19;20088;-70
2022/06/07 02:42:39;;;;;;;7.30;6.45;;;;;;;15.01;79.67;100733.91;7398615;19;20078;-70
2022/06/07 02:45:11;;;;;;;10.10;6.85;;;;;;;14.98;79.72;100740.19;7396185;19;20085;-70
2022/06/07 02:47:40;;;;;;;7.97;7.18;;;;;;;14.97;79.72;100745.53;7396018;19;20513;-70
2022/06/07 02:50:09;;;;;;;9.25;7.05;;;;;;;14.95;80.14;100750.88;7398787;19;20354;-70
2022/06/07 02:52:38;;;;;;;7.82;7.03;;;;;;;14.94;79.99;100750.97;7397206;19;20019;-70
2022/06/07 02:55:08;;;;;;;8.23;7.40;;;;;;;14.91;80.29;100745.78;7397918;19;20022;-71
2022/06/07 02:57:37;;;;;;;8.77;7.88;;;;;;;14.90;80.37;100744.06;7395976;19;20027;-70
2022/06/07 03:00:07;;;;;;;8.15;7.00;;;;;;;14.89;80.39;100745.00;7397907;19;20031;-70
2022/06/07 03:02:38;;;;;;;7.97;7.18;;;;;;;14.88;80.68;100746.75;7398037;19;20018;-70
2022/06/07 03:05:10;;;;;;;7.75;7.00;;;;;;;14.87;80.62;100745.03;7395310;19;20027;-70
2022/06/07 03:07:46;;;;;;;7.47;6.78;;;;;;;14.87;80.66;100744.19;7398008;19;20019;-69
2022/06/07 03:10:15;;;;;;;7.78;7.03;;;;;;;14.87;80.70;100752.97;7398138;19;20151;-70
2022/06/07 03:12:43;;;;;;;8.30;7.22;;;;;;;14.86;80.53;100747.75;7396226;19;20517;-70
2022/06/07 03:15:13;;;;;;;7.43;6.75;;;;;;;14.86;80.96;100750.38;7395447;19;20094;-71
2022/06/07 03:17:45;;;;;;;8.57;6.90;;;;;;;14.86;80.69;100753.03;7395332;19;20019;-70
2022/06/07 03:20:15;;;;;;;8.90;6.78;;;;;;;14.86;80.56;100761.84;7394685;19;20018;-70
2022/06/07 03:22:44;;;;;;;7.80;6.80;;;;;;;14.87;80.55;100760.03;7397079;19;20474;-70
2022/06/07 03:25:13;;;;;;;7.78;6.97;;;;;;;14.87;80.67;100755.59;7396804;19;20035;-71
2022/06/07 03:27:42;;;;;;;6.65;5.95;;;;;;;14.87;80.49;100754.75;7395001;19;20524;-70
2022/06/07 03:30:12;;;;;;;7.25;6.60;;;;;;;14.88;80.22;100759.13;7396223;19;20011;-70
2022/06/07 03:32:43;;;;;;;7.55;6.75;;;;;;;14.89;79.94;100759.06;7395707;19;20019;-70
2022/06/07 03:35:13;;;;;;;7.57;6.88;;;;;;;14.90;80.13;100752.84;7396518;19;20070;-70
2022/06/07 03:37:43;;;;;;;7.13;6.25;;;;;;;14.90;80.02;100760.78;7396160;19;20392;-70
2022/06/07 03:40:42;;;;;;;7.43;6.53;;;;;;;14.90;79.86;100757.25;7393153;19;20014;-70
2022/06/07 03:43:03;;;;;;;7.43;6.53;;;;;;;14.88;79.78;100753.84;7395675;19;20017;-70
2022/06/07 03:45:32;;;;;;;7.68;6.45;;;;;;;14.87;79.69;100749.47;7395392;19;20014;-70
2022/06/07 03:48:04;;;;;;;6.65;6.05;;;;;;;14.83;79.45;100751.38;7396098;19;20010;-70
2022/06/07 03:50:32;;;;;;;7.85;5.97;;;;;;;14.77;79.47;100741.94;7396155;19;20018;-70
2022/06/07 03:53:01;;;;;;;6.40;5.78;;;;;;;14.73;79.63;100742.09;7395020;19;20039;-70
2022/06/07 03:55:29;;;;;;;6.75;6.10;;;;;;;14.70;79.32;100737.78;7394957;19;20070;-69
2022/06/07 03:57:58;;;;;;;7.65;6.05;;;;;;;14.66;79.11;100744.97;7393659;19;20073;-69
2022/06/07 04:00:27;;;;;;;7.00;6.28;;;;;;;14.64;79.14;100741.50;7393372;19;20481;-69
2022/06/07 04:02:56;;;;;;;10.52;6.35;;;;;;;14.60;78.97;100741.69;7395295;19;20014;-70
2022/06/07 04:05:27;;;;;;;8.30;7.25;;;;;;;14.61;79.04;100743.41;7393968;19;20022;-70
2022/06/07 04:10:36;;;;;;;8.10;6.80;;;;;;;14.62;78.78;100750.38;7395716;19;20015;-69
2022/06/07 04:13:05;;;;;;;10.45;8.32;;;;;;;14.63;78.37;100744.19;7394433;19;20026;-69
2022/06/07 04:15:40;;;;;;;7.75;6.57;;;;;;;14.65;78.46;100742.41;7393089;19;20018;-70
2022/06/07 04:18:09;;;;;;;7.43;5.80;;;;;;;14.68;78.33;100749.34;7395114;19;20022;-69
2022/06/07 04:20:41;;;;;;;6.57;5.43;;;;;;;14.68;77.97;100750.19;7394753;19;20035;-70
2022/06/07 04:23:10;;;;;;;6.57;5.68;;;;;;;14.69;77.69;100751.91;7393122;19;20035;-70
2022/06/07 04:25:41;;;;;;;7.07;5.63;;;;;;;14.70;77.44;100758.91;7394094;19;20035;-70
2022/06/07 04:28:10;;;;;;;7.00;4.90;;;;;;;14.71;76.92;100752.72;7394952;19;20015;-69
2022/06/07 04:30:39;;;;;;;5.80;5.20;;;;;;;14.72;76.46;100756.22;7394302;19;20028;-70
2022/06/07 04:33:07;;;;;;;6.55;5.28;;;;;;;14.73;76.55;100753.50;7392659;19;20075;-69
2022/06/07 04:35:36;;;;;;;5.63;4.75;;;;;;;14.74;76.05;100755.22;7393153;19;20019;-69
2022/06/07 04:38:08;;;;;;;4.93;4.53;;;;;;;14.75;75.91;100749.03;7394303;19;20018;-69
2022/06/07 04:40:36;;;;;;;4.75;4.35;;;;;;;14.77;75.32;100759.53;7393481;19;20010;-69
2022/06/07 04:43:05;;;;;;;4.95;4.40;;;;;;;14.79;75.27;100757.69;7393944;19;20036;-69
2022/06/07 04:45:34;;;;;;;4.60;4.20;;;;;;;14.82;75.25;100753.16;7392847;19;20248;-69
2022/06/07 04:48:02;;;;;;;6.57;4.25;;;;;;;14.87;75.07;100757.41;7393802;19;20017;-70
2022/06/07 04:50:31;;;;;;;4.57;4.18;;;;;;;14.90;74.68;100760.78;7394059;19;20368;-69
2022/06/07 04:52:59;;;;;;;4.22;3.72;;;;;;;14.94;74.61;100758.88;7399327;19;20010;-70
2022/06/07 04:55:31;;;;;;;4.28;3.90;;;;;;;14.95;74.38;100755.28;7397170;19;20031;-69
2022/06/07 04:57:59;;;;;;;7.03;4.30;;;;;;;15.02;74.02;100759.41;7397151;19;20035;-70
2022/06/07 05:00:28;;;;;;;4.28;3.65;;;;;;;15.07;73.69;100762.75;7396094;19;20018;-69
2022/06/07 05:02:57;;;;;;;4.22;3.83;;;;;;;15.13;73.54;100767.78;7396636;19;20118;-70
2022/06/07 05:05:26;;;;;;;6.28;4.35;;;;;;;15.21;73.31;100762.19;7395410;19;20022;-68
2022/06/07 05:07:55;;;;;;;8.82;3.67;;;;;;;15.31;73.04;100765.31;7398549;19;20027;-70
2022/06/07 05:10:23;;;;;;;3.50;3.20;;;;;;;15.41;72.76;100760.50;7396379;19;20035;-69
2022/06/07 05:12:54;;;;;;;6.30;3.20;;;;;;;15.47;71.90;100771.69;7396454;19;20027;-72
2022/06/07 05:15:23;;;;;;;4.95;3.17;;;;;;;15.55;71.53;100765.22;7396415;19;20058;-69
2022/06/07 05:17:51;;;;;;;6.03;3.10;;;;;;;15.61;71.20;100772.91;7399217;19;20572;-69
2022/06/07 05:20:20;;;;;;;5.35;3.13;;;;;;;15.70;71.32;100761.06;7398798;19;20053;-70
2022/06/07 05:22:48;;;;;;;7.97;4.20;;;;;;;15.79;70.87;100758.84;7397834;19;20023;-69
2022/06/07 05:25:19;;;;;;;5.68;4.07;;;;;;;15.89;70.78;100750.56;7399576;19;20019;-71
2022/06/07 05:27:51;;;;;;;3.00;2.70;;;;;;;16.00;70.27;100758.03;7398585;19;20015;-70
2022/06/07 05:30:22;;;;;;;3.50;2.28;;;;;;;16.11;69.95;100758.41;7398312;19;20118;-70
2022/06/07 05:32:51;;;;;;;5.90;2.78;;;;;;;16.22;69.48;100760.59;7399624;19;20014;-70
2022/06/07 05:35:19;;;;;;;2.20;2.00;;;;;;;16.31;68.12;100757.50;7396752;19;20037;-71
2022/06/07 05:37:48;;;;;;;3.05;2.42;;;;;;;16.40;68.12;100764.19;7396874;19;20423;-70
2022/06/07 05:40:16;;;;;;;3.58;2.30;;;;;;;16.48;67.49;100771.75;7396010;19;20014;-70
2022/06/07 05:42:45;;;;;;;2.50;1.58;;;;;;;16.54;66.65;100774.13;7398975;19;20077;-70
2022/06/07 05:45:13;;;;;;;2.55;1.50;;;;;;;16.60;66.63;100776.50;7398943;19;20014;-70
2022/06/07 05:47:44;;;;;;;3.90;1.98;;;;;;;16.69;66.21;100780.50;7397417;19;20029;-70
2022/06/07 05:50:13;;;;;;;2.00;1.80;;;;;;;16.75;65.76;100778.41;7397677;19;20022;-70
2022/06/07 05:52:42;;;;;;;3.33;2.33;;;;;;;16.86;65.36;100774.44;7396686;19;20018;-70
2022/06/07 05:55:12;;;;;;;2.00;1.55;;;;;;;16.94;64.80;100780.25;7398641;19;20014;-70
2022/06/07 05:57:40;;;;;;;5.10;2.05;;;;;;;17.04;64.16;100784.16;7399121;19;20027;-70
2022/06/07 06:00:10;;;;;;;5.00;3.10;;;;;;;17.12;64.06;100777.63;7396729;19;20022;-70
2022/06/07 06:02:38;;;;;;;2.70;1.77;;;;;;;17.18;63.67;100787.94;7393811;19;20032;-70
2022/06/07 06:05:11;;;;;;;4.15;2.50;;;;;;;17.21;63.28;100788.66;7398162;19;20019;-70
2022/06/07 06:10:19;;;;;;;3.10;2.20;;;;;;;17.26;63.16;100793.72;7399005;19;20019;-71
2022/06/07 06:10:25;;;;;;;1.70;1.60;;;;;;;17.33;62.96;100792.50;7397891;19;20586;-71
2022/06/07 06:12:54;;;;;;;4.28;2.20;;;;;;;17.38;62.60;100784.31;7398780;19;20030;-70
2022/06/07 06:15:23;;;;;;;2.92;1.90;;;;;;;17.43;62.56;100785.78;7395489;19;20014;-70
2022/06/07 06:17:52;;;;;;;5.97;2.58;;;;;;;17.50;62.24;100789.00;7396031;19;20343;-70
2022/06/07 06:20:23;;;;;;;2.38;2.17;;;;;;;17.55;62.25;100789.63;7398675;19;20494;-70
2022/06/07 06:22:51;;;;;;;3.25;2.10;;;;;;;17.61;61.98;100777.00;7398375;19;20035;-69
2022/06/07 06:25:20;;;;;;;4.18;2.20;;;;;;;17.67;61.99;100782.00;7396946;19;20027;-70
2022/06/07 06:27:49;;;;;;;2.92;2.10;;;;;;;17.70;61.77;100780.03;7397552;19;20082;-70
2022/06/07 06:30:20;;;;;;;4.53;2.38;;;;;;;17.75;61.90;100785.97;7394837;19;20438;-70
2022/06/07 06:32:48;;;;;;;2.08;1.88;;;;;;;17.82;61.82;100786.50;7394110;19;20118;-70
2022/06/07 06:35:16;;;;;;;2.17;1.98;;;;;;;17.86;61.64;100788.06;7395927;19;20027;-70
2022/06/07 06:37:48;;;;;;;3.83;2.25;;;;;;;17.90;61.12;100794.06;7396946;19;20022;-69
2022/06/07 06:40:17;;;;;;;2.45;2.08;;;;;;;17.94;60.95;100790.34;7396563;19;20014;-69
2022/06/07 06:42:45;;;;;;;5.55;2.17;;;;;;;18.01;60.82;100790.91;7397013;19;20035;-69
2022/06/07 06:45:14;;;;;;;5.30;2.85;;;;;;;18.07;60.38;100791.44;7395523;19;20035;-69
2022/06/07 06:47:44;;;;;;;2.15;1.75;;;;;;;18.16;60.28;100794.53;7397746;19;20018;-69
2022/06/07 06:50:13;;;;;;;4.40;2.22;;;;;;;18.23;60.39;100796.78;7397933;19;20038;-69
2022/06/07 06:52:42;;;;;;;6.72;1.77;;;;;;;18.29;60.00;100795.59;7397222;19;20018;-70
2022/06/07 06:55:14;;;;;;;5.18;2.40;;;;;;;18.36;59.40;100789.03;7394719;19;20418;-69
2022/06/07 06:57:42;;;;;;;2.30;2.10;;;;;;;18.42;59.67;100787.84;7397320;19;20029;-69
2022/06/07 07:00:12;;;;;;;4.00;1.85;;;;;;;18.49;58.88;100791.88;7394876;19;20018;-70
2022/06/07 07:02:41;;;;;;;3.28;1.90;;;;;;;18.53;58.82;100789.91;7394989;19;20028;-69
2022/06/07 07:05:11;;;;;;;4.07;2.22;;;;;;;18.58;58.52;100793.19;7394880;19;20022;-70
2022/06/07 07:07:40;;;;;;;2.95;2.03;;;;;;;18.64;58.70;100791.97;7395084;19;20029;-70
2022/06/07 07:10:13;;;;;;;2.67;2.00;;;;;;;18.69;58.85;100792.56;7396416;19;20485;-70
2022/06/07 07:12:42;;;;;;;3.80;1.90;;;;;;;18.75;59.00;100799.38;7397495;19;20022;-70
2022/06/07 07:15:14;;;;;;;4.90;2.95;;;;;;;18.81;58.79;100791.91;7392936;19;20014;-70
2022/06/07 07:17:42;;;;;;;3.85;2.58;;;;;;;18.88;58.80;100800.41;7393975;19;20025;-69
2022/06/07 07:20:12;;;;;;;3.40;2.50;;;;;;;18.96;58.35;100797.34;7395376;19;20079;-70
2022/06/07 07:22:41;;;;;;;3.00;2.22;;;;;;;19.03;57.93;100793.38;7396266;19;20085;-70
2022/06/07 07:25:13;;;;;;;3.78;2.95;;;;;;;19.12;57.51;100792.88;7395914;19;20011;-69
2022/06/07 07:27:42;;;;;;;5.68;2.47;;;;;;;19.21;57.61;100794.16;7394604;19;20022;-69
2022/06/07 07:30:13;;;;;;;4.78;2.95;;;;;;;19.26;56.70;100788.56;7395993;19;20027;-71
2022/06/07 07:32:42;;;;;;;3.45;1.85;;;;;;;19.32;56.94;100790.88;7394355;19;20018;-70
2022/06/07 07:35:13;;;;;;;3.80;2.10;;;;;;;19.38;56.75;100779.88;7393346;19;20032;-70
2022/06/07 07:37:42;;;;;;;6.28;1.88;;;;;;;19.45;56.41;100785.69;7396138;19;20018;-70
2022/06/07 07:40:14;;;;;;;3.75;2.45;;;;;;;19.53;55.88;100783.44;7394078;19;20022;-70
2022/06/07 07:42:43;;;;;;;2.72;1.42;;;;;;;19.62;55.60;100782.03;7395105;19;20015;-70
2022/06/07 07:45:13;;;;;;;3.78;2.75;;;;;;;19.70;55.32;100779.78;7393271;19;20030;-69
2022/06/07 07:47:42;;;;;;;2.33;1.65;;;;;;;19.80;54.59;100782.75;7395264;19;20018;-70
2022/06/07 07:50:12;;;;;;;5.65;3.15;;;;;;;19.88;54.62;100772.53;7393257;19;20022;-70
2022/06/07 07:52:41;;;;;;;1.95;1.67;;;;;;;19.98;54.33;100781.69;7395274;19;20387;-71
2022/06/07 07:55:11;;;;;;;3.38;2.42;;;;;;;20.06;54.15;100785.69;7393331;19;20111;-70
2022/06/07 07:57:42;;;;;;;5.68;2.08;;;;;;;20.14;53.70;100783.38;7394671;19;20370;-70
2022/06/07 08:00:11;;;;;;;3.08;1.70;;;;;;;20.22;54.05;100785.59;7395760;19;20035;-70
2022/06/07 08:02:40;;;;;;;2.78;2.30;;;;;;;20.28;53.47;100780.75;7395422;19;20026;-70
2022/06/07 08:05:09;;;;;;;3.58;1.92;;;;;;;20.37;52.75;100778.44;7392826;19;20018;-70
2022/06/07 08:07:38;;;;;;;2.65;1.48;;;;;;;20.46;52.46;100778.72;7394318;19;20014;-70
2022/06/07 08:10:08;;;;;;;2.85;2.13;;;;;;;20.55;51.80;100785.28;7393213;19;20023;-70
2022/06/07 08:12:37;;;;;;;4.18;1.95;;;;;;;20.62;51.93;100773.28;7395292;19;20035;-70
2022/06/07 08:15:09;;;;;;;4.32;2.58;;;;;;;20.70;51.08;100770.16;7392093;19;20014;-71
2022/06/07 08:17:38;;;;;;;3.60;1.65;;;;;;;20.77;50.87;100770.63;7394492;19;20014;-70
2022/06/07 08:20:08;;;;;;;3.10;2.30;;;;;;;20.84;50.29;100763.97;7392353;19;20015;-70
2022/06/07 08:22:37;;;;;;;3.50;1.10;;;;;;;20.92;50.20;100764.28;7392965;19;20022;-70
2022/06/07 08:25:06;;;;;;;2.42;1.55;;;;;;;20.98;50.15;100758.56;7391805;19;20014;-71
2022/06/07 08:27:37;;;;;;;3.78;2.00;;;;;;;21.08;49.16;100761.50;7390684;19;20021;-70
2022/06/07 08:30:11;;;;;;;2.20;1.08;;;;;;;21.16;49.23;100763.66;7393163;19;20554;-70
2022/06/07 08:32:39;;;;;;;3.90;1.35;;;;;;;21.26;49.13;100756.75;7392166;19;20025;-70
2022/06/07 08:37:50;;;;;;;4.00;1.25;;;;;;;21.51;48.98;100748.91;7393926;19;20040;-70
2022/06/07 08:40:26;;;;;;;2.92;2.03;;;;;;;21.60;48.38;100749.16;7393743;19;20082;-70
2022/06/07 08:42:58;;;;;;;2.55;1.40;;;;;;;21.64;48.21;100742.66;7392442;19;20026;-70
2022/06/07 08:45:33;;;;;;;3.78;1.45;;;;;;;21.69;48.15;100741.50;7394270;19;20023;-70
2022/06/07 08:48:04;;;;;;;2.97;1.42;;;;;;;21.76;48.22;100742.75;7392601;19;20366;-69
2022/06/07 08:50:36;;;;;;;2.30;1.48;;;;;;;21.84;47.35;100745.78;7394832;19;20019;-70
2022/06/07 08:53:13;;;;;;;1.80;1.40;;;;;;;21.90;46.47;100749.81;7391922;19;20106;-69
2022/06/07 08:55:46;;;;;;;2.83;1.02;;;;;;;21.96;46.49;100749.41;7392663;19;20018;-70
2022/06/07 08:58:19;;;;;;;2.30;1.23;;;;;;;21.99;46.10;100746.53;7392830;19;20086;-70
2022/06/07 09:00:53;;;;;;;2.27;1.30;;;;;;;22.04;45.54;100740.84;7394512;19;20086;-71
2022/06/07 09:03:49;;;;;;;1.63;1.05;;;;;;;22.12;44.72;100741.16;7394193;19;20022;-70
2022/06/07 09:06:22;;;;;;;2.35;0.80;;;;;;;22.19;45.24;100731.75;7391386;19;20485;-70
2022/06/07 09:09:00;;;;;;;3.97;1.20;;;;;;;22.24;44.86;100729.63;7391897;19;20023;-69
2022/06/07 09:14:22;;;;;;;3.03;1.13;;;;;;;22.27;44.54;100707.16;7391861;19;20039;-70
2022/06/07 09:16:59;;;;;;;2.97;0.90;;;;;;;22.29;42.99;100706.09;7390978;19;20018;-70
2022/06/07 09:19:31;;;;;;;1.48;1.02;;;;;;;22.36;43.92;100706.50;7390883;19;20074;-71
2022/06/07 09:22:03;;;;;;;4.28;1.48;;;;;;;22.41;43.56;100700.84;7393845;19;20395;-69
2022/06/07 09:24:42;;;;;;;2.42;0.85;;;;;;;22.48;43.07;100702.09;7390703;19;20031;-70
2022/06/07 09:27:18;;;;;;;2.63;1.30;;;;;;;22.59;42.79;100704.00;7390277;19;20019;-70
2022/06/07 09:29:54;;;;;;;1.90;1.05;;;;;;;22.70;41.55;100705.91;7390777;19;20601;-70
2022/06/07 09:32:29;;;;;;;2.45;1.13;;;;;;;22.79;42.03;100697.19;7392622;19;20074;-69
2022/06/07 09:35:03;;;;;;;4.28;1.25;;;;;;;22.91;42.48;100679.34;7391563;19;20029;-71
2022/06/07 09:37:43;;;;;;;3.50;0.93;;;;;;;23.01;41.84;100691.06;7395857;19;20014;-70
2022/06/07 09:40:29;;;;;;;8.25;1.27;;;;;;;23.11;42.10;100677.84;7399328;19;20557;-71
2022/06/07 09:43:08;;;;;;;3.67;1.20;;;;;;;23.20;41.25;100687.03;7397206;19;20511;-71
2022/06/07 09:45:39;;;;;;;1.45;0.70;;;;;;;23.20;41.60;100682.56;7399506;19;20039;-70
2022/06/07 09:48:28;;;;;;;2.63;1.10;;;;;;;23.26;40.53;100670.50;7399139;19;20431;-70
2022/06/07 09:50:59;;;;;;;4.45;1.33;;;;;;;23.38;41.09;100668.72;7399368;19;20446;-71
2022/06/07 09:53:34;;;;;;;2.45;1.00;;;;;;;23.50;40.94;100659.72;7396487;19;20367;-70
2022/06/07 09:56:23;;;;;;;4.00;1.08;;;;;;;23.56;39.55;100669.97;7396914;19;20037;-71
2022/06/07 09:59:03;;;;;;;1.23;1.13;;;;;;;23.54;39.68;100669.25;7399899;19;20092;-70
2022/06/07 10:01:38;;;;;;;4.32;1.13;;;;;;;23.55;39.83;100652.19;7400672;19;20022;-70
2022/06/07 10:04:19;;;;;;;1.15;0.82;;;;;;;23.58;40.31;100659.13;7399004;19;20027;-71
2022/06/07 10:06:51;;;;;;;1.58;0.63;;;;;;;23.58;39.04;100660.00;7396872;19;20018;-71
2022/06/07 10:09:39;;;;;;;3.07;1.07;;;;;;;23.51;38.80;100658.78;7400015;19;20039;-71
2022/06/07 10:12:18;;;;;;;2.22;0.80;;;;;;;23.48;40.04;100650.13;7396483;19;20465;-71
2022/06/07 10:14:54;;;;;;;2.47;0.90;;;;;;;23.48;40.12;100651.00;7397094;19;20411;-71
2022/06/07 10:17:48;;;;;;;1.67;0.90;;;;;;;23.49;39.19;100647.31;7395977;19;20477;-71
2022/06/07 10:20:30;;;;;;;2.65;1.05;;;;;;;23.47;38.39;100654.63;7398760;19;20032;-69
2022/06/07 10:23:19;;;;;;;2.50;0.77;;;;;;;23.41;38.64;100657.78;7398152;19;20025;-70
2022/06/07 10:26:00;;;;;;;1.80;0.90;;;;;;;23.35;38.63;100660.94;7397216;19;20345;-69
2022/06/07 10:28:37;;;;;;;1.92;1.30;;;;;;;23.31;40.14;100660.31;7396377;19;20106;-70
2022/06/07 10:31:13;;;;;;;2.53;1.23;;;;;;;23.33;40.09;100657.50;7397238;19;20041;-71
2022/06/07 10:33:51;;;;;;;2.08;1.10;;;;;;;23.30;38.78;100649.72;7395907;19;20026;-71
2022/06/07 10:36:40;;;;;;;3.15;1.45;;;;;;;23.35;39.29;100653.75;7395779;19;20026;-69
2022/06/07 10:39:25;;;;;;;4.45;1.10;;;;;;;23.46;39.17;100644.06;7396465;19;20019;-69
2022/06/07 10:42:06;;;;;;;2.78;1.10;;;;;;;23.47;37.86;100645.72;7398113;19;20054;-68
2022/06/07 10:44:38;;;;;;;5.57;1.52;;;;;;;23.47;38.92;100646.59;7395402;19;20541;-70
2022/06/07 10:47:15;;;;;;;3.95;1.23;;;;;;;23.49;39.25;100644.63;7395577;19;20034;-70
2022/06/07 10:49:52;;;;;;;3.88;1.33;;;;;;;23.57;39.36;100631.50;7396500;19;20073;-70
2022/06/07 10:52:34;;;;;;;3.30;1.00;;;;;;;23.68;39.23;100630.69;7397646;19;20026;-70
2022/06/07 10:55:13;;;;;;;6.57;1.13;;;;;;;23.74;38.36;100630.16;7394861;19;20014;-71
2022/06/07 10:57:54;;;;;;;3.60;1.20;;;;;;;23.81;38.23;100627.88;7397880;19;20017;-73
2022/06/07 11:00:37;;;;;;;12.85;2.42;;;;;;;23.85;36.83;100636.53;7397389;19;20031;-71
2022/06/07 11:03:17;;;;;;;3.53;1.00;;;;;;;23.83;37.12;100633.09;7394916;19;20027;-71
2022/06/07 11:11:21;;;;;;;4.65;1.17;;;;;;;23.70;38.37;100641.28;7396631;19;20014;-70
2022/06/07 11:14:05;;;;;;;3.58;1.05;;;;;;;23.63;37.75;100651.59;7396552;19;20027;-71
2022/06/07 11:16:42;;;;;;;3.65;0.90;;;;;;;23.50;38.08;100651.69;7391797;19;20021;-71
2022/06/07 11:19:12;;;;;;;3.13;0.70;;;;;;;23.36;38.41;100658.13;7394061;19;20015;-70
2022/06/07 11:21:44;;;;;;;10.77;1.40;;;;;;;23.21;37.96;100656.63;7395904;19;20059;-70
2022/06/07 11:24:29;;;;;;;1.27;0.70;;;;;;;23.08;37.28;100651.34;7393095;19;20014;-69
2022/06/07 11:27:18;;;;;;;8.25;1.45;;;;;;;23.05;38.31;100638.19;7393006;19;20115;-70
2022/06/07 11:29:47;;;;;;;4.00;0.85;;;;;;;23.10;38.36;100642.22;7392897;19;20019;-71
2022/06/07 11:32:42;;;;;;;22.48;2.78;;;;;;;23.22;38.16;100651.16;7394713;19;20031;-69
2022/06/07 11:35:40;;;;;;;3.17;1.30;;;;;;;23.35;37.87;100640.34;7394066;19;20348;-69
2022/06/07 11:38:16;;;;;;;2.35;0.90;;;;;;;23.47;38.07;100640.38;7392173;19;20041;-70
2022/06/07 11:40:48;;;;;;;2.03;0.90;;;;;;;23.53;37.95;100640.78;7395395;19;20014;-71
2022/06/07 11:43:47;;;;;;;2.38;1.02;;;;;;;23.56;38.42;100635.16;7394882;19;20387;-71
2022/06/07 11:46:25;;;;;;;3.50;1.13;;;;;;;23.57;37.81;100644.91;7394546;19;20091;-70
2022/06/07 11:48:53;;;;;;;1.35;0.93;;;;;;;23.60;37.60;100643.81;7393949;19;20031;-70
2022/06/07 11:51:24;;;;;;;4.95;1.63;;;;;;;23.66;38.18;100639.81;7396084;19;20039;-71
2022/06/07 11:54:01;;;;;;;1.88;0.90;;;;;;;23.78;37.43;100630.78;7394841;19;20018;-71
2022/06/07 11:56:40;;;;;;;2.00;1.00;;;;;;;23.97;37.25;100629.34;7396374;19;20026;-69
2022/06/07 11:59:34;;;;;;;3.53;1.20;;;;;;;24.18;36.90;100632.97;7395767;19;20038;-70
2022/06/07 12:02:32;;;;;;;;;;;;;;;24.33;34.82;100628.19;7394290;19;20042;-70
2022/06/07 12:05:26;;;;;;;3.42;1.10;;;;;;;24.46;35.82;100621.84;7392459;19;19919;-70
2022/06/07 12:07:59;;;;;;;1.42;0.90;;;;;;;24.53;35.57;100621.19;7395101;19;20489;-70
2022/06/07 12:10:34;;;;;;;1.50;0.60;;;;;;;24.61;34.75;100617.03;7397169;19;20419;-70